Automated Weather Station

Magsaysay, Infanta, Quezon


Readings

as of November 11, 2016 04:01 PM
Wind Speed
3.4 mm
Rainfall Amount
0.14 mm
Rainfall Intensity
11.3 mm
Air Temperature
mm
Wind Direction
96 mm
Air Humidity
97.7 mm

Data Source: PREDICT (Advanced Science and Technology Institute)

12 HOUR DATA

PREVIOUS DATA

From
To
DateTime Wind Speed Rain Amount Rain Intensity Air Temperature Air Pressure Wind Direction Air Humidity
October 31, 2016 12:03 PM 12.2 0 mm 0 24.9 929.63 57 84.4
October 31, 2016 11:01 AM 11.8 0 mm 0 23.6 928.7 28 91.2
October 31, 2016 10:01 AM 9 0 mm 0 23 929.1 27 96.1
October 31, 2016 09:01 AM 13.1 0 mm 0 23.1 929.63 26 92.3
October 31, 2016 08:01 AM 6.8 0 mm 0 22.9 928.97 16 95
October 30, 2016 11:01 PM 17.5 0 mm 0 21.8 929.63 21 97.4
October 30, 2016 10:01 PM 16.1 0 mm 0 21.6 929.5 109 92.2
October 30, 2016 09:01 PM 16.3 0 mm 0 22 929.63 18 97.9
October 30, 2016 08:01 PM 9.4 0 mm 0 22.2 929.23 9 98
October 30, 2016 07:01 PM 8.9 0 mm 0 22.2 928.83 24 98.9
October 30, 2016 06:01 PM 10.2 0 mm 0 22.2 928.43 65 97.3
October 30, 2016 05:01 PM 19.4 0 mm 0 22.3 928.03 91 95.9
October 30, 2016 03:01 PM 12.5 0 mm 0 23.3 928.03 31 91.3
October 30, 2016 02:01 PM 10.5 0 mm 0 23.3 927.37 34 94.7
October 30, 2016 01:01 PM 7.9 0 mm 0 22.9 927.77 73 98.2
October 30, 2016 12:01 PM 14.4 0 mm 0 24.4 928.43 60 93.3
October 30, 2016 10:01 AM 14.1 0 mm 0 23.1 929.9 60 97.2
October 30, 2016 09:01 AM 13.4 0 mm 0 22.6 930.43 34 98.2
October 30, 2016 08:01 AM 12.6 0 mm 0 22.1 930.03 22 99
October 30, 2016 07:01 AM 13.1 0 mm 0 22 929.9 38 99.2
October 30, 2016 06:02 AM 2.7 0 mm 0 22.1 929.1 13 99.2
October 30, 2016 05:01 AM 8.8 0 mm 0 21.8 928.7 36 98.9
October 30, 2016 04:01 AM 4.2 0 mm 0 21.6 928.03 14 98.6
October 30, 2016 03:01 AM 11.7 0 mm 0 21.7 928.03 41 98.8
October 30, 2016 02:01 AM 11 0 mm 0 21.8 927.77 49 97.1
October 30, 2016 01:01 AM 12.4 0 mm 0 21.8 928.43 37 97
October 29, 2016 11:01 PM 15.7 0 mm 0 21.7 929.23 61 98.1
October 29, 2016 10:01 PM 14.4 0 mm 0 22 928.83 32 98.1
October 29, 2016 09:01 PM 18.5 0 mm 0 22 928.7 66 96.3
October 29, 2016 08:02 PM 10.8 0 mm 0 22.2 928.57 62 97.2